createdAt,value
2023-11-19T00:01:34.121Z,2.24
2023-11-19T00:06:37.206Z,2.23
2023-11-19T00:11:40.192Z,2.18
2023-11-19T00:16:43.151Z,2.18
2023-11-19T00:21:47.179Z,2.27
2023-11-19T00:26:51.441Z,2.40
2023-11-19T00:31:54.551Z,2.48
2023-11-19T00:36:57.614Z,2.51
2023-11-19T00:42:00.645Z,2.46
2023-11-19T00:47:03.987Z,2.37
2023-11-19T00:52:07.717Z,2.29
2023-11-19T00:57:10.852Z,2.26
2023-11-19T01:02:15.505Z,2.25
2023-11-19T01:07:18.638Z,2.27
2023-11-19T01:12:22.104Z,2.33
2023-11-19T01:17:25.084Z,2.44
2023-11-19T01:22:28.097Z,2.53
2023-11-19T01:27:31.145Z,2.46
2023-11-19T01:32:34.143Z,2.53
2023-11-19T01:37:37.782Z,2.56
2023-11-19T01:42:42.346Z,2.52
2023-11-19T01:47:45.613Z,2.49
2023-11-19T01:52:49.579Z,2.49
2023-11-19T01:57:54.847Z,2.47
2023-11-19T02:02:58.480Z,2.56
2023-11-19T02:08:02.869Z,2.64
2023-11-19T02:13:07.536Z,2.72
2023-11-19T02:18:29.395Z,2.75
2023-11-19T02:23:32.894Z,2.72
2023-11-19T02:28:38.320Z,2.66
2023-11-19T02:33:41.750Z,2.54
2023-11-19T02:38:44.776Z,2.42
2023-11-19T02:43:49.885Z,2.49
2023-11-19T02:48:53.214Z,2.60
2023-11-19T02:53:56.301Z,2.69
2023-11-19T02:58:59.602Z,2.59
2023-11-19T03:04:04.128Z,2.55
2023-11-19T03:09:11.717Z,2.43
2023-11-19T03:14:14.755Z,2.34
2023-11-19T03:19:25.898Z,2.31
2023-11-19T03:24:29.198Z,2.29
2023-11-19T03:29:32.208Z,2.21
2023-11-19T03:34:35.210Z,2.18
2023-11-19T03:39:38.623Z,2.21
2023-11-19T03:44:41.583Z,2.25
2023-11-19T03:49:49.921Z,2.29
2023-11-19T03:54:52.888Z,2.27
2023-11-19T03:59:56.846Z,2.28
2023-11-19T04:04:59.671Z,2.29
2023-11-19T04:10:03.372Z,2.27
2023-11-19T04:15:07.997Z,2.21
2023-11-19T04:20:14.747Z,2.24
2023-11-19T04:25:18.981Z,2.19
2023-11-19T04:30:21.874Z,2.17
2023-11-19T04:35:24.861Z,2.23
2023-11-19T04:40:27.884Z,2.24
2023-11-19T04:45:31.042Z,2.19
2023-11-19T04:50:34.023Z,2.20
2023-11-19T04:55:37.024Z,2.31
2023-11-19T05:00:40.055Z,2.30
2023-11-19T05:05:43.028Z,2.20
2023-11-19T05:10:46.054Z,2.10
2023-11-19T05:15:49.029Z,2.11
2023-11-19T05:20:52.009Z,2.16
2023-11-19T05:25:55.303Z,2.28
2023-11-19T05:30:58.849Z,2.30
2023-11-19T05:36:04.706Z,2.28
2023-11-19T05:41:07.782Z,2.25
2023-11-19T05:51:17.698Z,2.19
2023-11-19T05:56:23.126Z,2.17
2023-11-19T06:01:26.480Z,2.11
2023-11-19T06:06:30.666Z,2.11
2023-11-19T06:11:37.246Z,2.18
2023-11-19T06:16:41.595Z,2.22
2023-11-19T06:21:44.724Z,2.21
2023-11-19T06:26:47.698Z,2.18
2023-11-19T06:31:50.692Z,2.14
2023-11-19T06:36:54.311Z,2.08
2023-11-19T06:41:57.839Z,2.04
2023-11-19T06:47:00.809Z,2.03
2023-11-19T06:52:10.455Z,2.11
2023-11-19T06:57:13.647Z,2.18
2023-11-19T07:02:16.778Z,2.20
2023-11-19T07:07:20.057Z,2.18
2023-11-19T07:12:23.065Z,2.15
2023-11-19T07:17:26.301Z,2.09
2023-11-19T07:22:31.385Z,2.05
2023-11-19T07:27:40.539Z,2.02
2023-11-19T07:32:44.247Z,2.05
2023-11-19T07:37:49.172Z,2.11
2023-11-19T07:42:52.574Z,2.15
2023-11-19T07:47:56.083Z,2.13
2023-11-19T07:52:59.110Z,2.08
2023-11-19T07:58:02.488Z,2.05
2023-11-19T08:03:06.289Z,2.07
2023-11-19T08:08:09.636Z,2.11
2023-11-19T08:13:13.269Z,2.17
2023-11-19T08:18:16.328Z,2.22
2023-11-19T08:23:19.665Z,2.26
2023-11-19T08:28:22.626Z,2.28
2023-11-19T08:33:25.663Z,2.26
2023-11-19T08:38:32.169Z,2.22
2023-11-19T08:43:35.443Z,2.20
2023-11-19T08:48:39.532Z,2.25
2023-11-19T08:53:43.245Z,2.29
2023-11-19T08:58:46.239Z,2.30
2023-11-19T09:03:49.385Z,2.23
2023-11-19T09:08:52.558Z,2.15
2023-11-19T09:13:55.599Z,2.16
2023-11-19T09:19:00.541Z,2.15
2023-11-19T09:24:03.809Z,2.10
2023-11-19T09:29:06.798Z,2.10
2023-11-19T09:34:09.953Z,2.09
2023-11-19T09:39:19.167Z,2.11
2023-11-19T09:44:22.527Z,2.16
2023-11-19T09:54:34.876Z,2.16
2023-11-19T09:59:40.291Z,2.22
2023-11-19T10:04:54.462Z,2.30
2023-11-19T10:09:57.517Z,2.33
2023-11-19T10:15:00.966Z,2.36
2023-11-19T10:20:05.887Z,2.38
2023-11-19T10:25:30.288Z,2.40
2023-11-19T10:30:35.561Z,2.44
2023-11-19T10:36:03.376Z,2.55
2023-11-19T10:41:06.897Z,2.65
2023-11-19T10:46:15.440Z,2.67
2023-11-19T10:51:25.114Z,2.67
2023-11-19T10:56:33.231Z,2.62
2023-11-19T11:01:46.580Z,2.61
2023-11-19T11:06:51.432Z,2.61
2023-11-19T11:11:56.450Z,2.62
2023-11-19T11:17:04.320Z,2.65
2023-11-19T11:22:08.878Z,2.64
2023-11-19T11:27:36.295Z,2.62
2023-11-19T11:33:32.072Z,2.60
2023-11-19T11:38:41.144Z,2.57
2023-11-19T11:43:52.766Z,2.61
2023-11-19T11:48:57.611Z,2.63
2023-11-19T11:54:01.106Z,2.62
2023-11-19T11:59:04.172Z,2.57
2023-11-19T12:04:07.312Z,2.52
2023-11-19T12:09:10.533Z,2.54
2023-11-19T12:14:14.221Z,2.57
2023-11-19T12:19:18.292Z,2.58
2023-11-19T12:24:25.824Z,2.56
2023-11-19T12:29:28.870Z,2.55
2023-11-19T12:34:31.963Z,2.58
2023-11-19T12:39:35.310Z,2.64
2023-11-19T12:44:38.353Z,2.63
2023-11-19T12:49:41.618Z,2.59
2023-11-19T12:54:44.707Z,2.56
2023-11-19T13:00:00.402Z,2.60
2023-11-19T13:05:25.887Z,2.65
2023-11-19T13:10:29.516Z,2.62
2023-11-19T13:15:34.423Z,2.62
2023-11-19T13:20:37.473Z,2.55
2023-11-19T13:25:40.465Z,2.53
2023-11-19T13:30:43.464Z,2.55
2023-11-19T13:35:46.508Z,2.53
2023-11-19T13:40:49.514Z,2.45
2023-11-19T13:45:54.489Z,2.40
2023-11-19T13:50:57.699Z,2.40
2023-11-19T13:56:01.267Z,2.42
2023-11-19T14:01:04.620Z,2.39
2023-11-19T14:06:09.728Z,2.33
2023-11-19T14:11:12.958Z,2.32
2023-11-19T14:16:18.629Z,2.33
2023-11-19T14:21:22.527Z,2.34
2023-11-19T14:26:25.781Z,2.34
2023-11-19T14:31:34.694Z,2.26
2023-11-19T14:36:37.716Z,2.15
2023-11-19T14:41:40.816Z,2.13
2023-11-19T14:46:44.125Z,2.13
2023-11-19T14:51:49.257Z,2.10
2023-11-19T14:56:53.228Z,2.03
2023-11-19T15:01:56.424Z,1.93
2023-11-19T15:07:00.863Z,1.88
2023-11-19T15:12:06.832Z,1.86
2023-11-19T15:17:09.867Z,1.85
2023-11-19T15:22:13.684Z,1.84
2023-11-19T15:27:17.053Z,1.81
2023-11-19T15:32:20.548Z,1.76
2023-11-19T15:37:23.619Z,1.70
2023-11-19T15:42:26.621Z,1.78
2023-11-19T15:47:30.343Z,1.80
2023-11-19T15:52:33.488Z,1.82
2023-11-19T15:57:36.987Z,1.75
2023-11-19T16:02:40.774Z,1.72
2023-11-19T16:07:44.041Z,1.75
2023-11-19T16:12:47.709Z,1.82
2023-11-19T16:17:50.973Z,1.90
2023-11-19T16:22:54.221Z,1.92
2023-11-19T16:27:57.495Z,1.92
2023-11-19T16:33:01.118Z,1.88
2023-11-19T16:38:05.092Z,1.81
2023-11-19T16:43:08.192Z,1.78
2023-11-19T16:48:11.279Z,1.84
2023-11-19T16:53:14.461Z,1.89
2023-11-19T16:58:17.539Z,1.90
2023-11-19T17:03:22.046Z,1.88
2023-11-19T17:08:26.523Z,1.88
2023-11-19T17:13:29.700Z,1.87
2023-11-19T17:18:32.794Z,1.89
2023-11-19T17:23:35.985Z,1.92
2023-11-19T17:28:39.018Z,1.96
2023-11-19T17:33:42.356Z,1.97
2023-11-19T17:38:45.434Z,1.95
2023-11-19T17:43:49.963Z,1.91
2023-11-19T17:48:53.340Z,1.88
2023-11-19T17:53:56.394Z,1.88
2023-11-19T17:58:59.467Z,1.94
2023-11-19T18:04:02.592Z,1.99
2023-11-19T18:09:07.551Z,1.99
2023-11-19T18:14:12.548Z,1.93
2023-11-19T18:19:16.334Z,1.89
2023-11-19T18:24:19.406Z,1.86
2023-11-19T18:29:22.522Z,1.87
2023-11-19T18:34:25.977Z,1.89
2023-11-19T18:39:29.088Z,1.89
2023-11-19T18:44:33.617Z,1.85
2023-11-19T18:49:37.415Z,1.84
2023-11-19T18:54:40.400Z,1.81
2023-11-19T18:59:43.475Z,1.85
2023-11-19T19:04:46.726Z,1.93
2023-11-19T19:09:54.145Z,2.03
2023-11-19T19:15:16.512Z,2.07
2023-11-19T19:20:20.490Z,2.07
2023-11-19T19:25:26.610Z,2.05
2023-11-19T19:30:29.939Z,2.00
2023-11-19T19:35:33.337Z,2.03
2023-11-19T19:40:37.128Z,2.12
2023-11-19T19:45:40.198Z,2.16
2023-11-19T19:50:43.310Z,2.14
2023-11-19T19:55:46.499Z,2.08
2023-11-19T20:00:49.692Z,2.03
2023-11-19T20:05:56.529Z,2.02
2023-11-19T20:10:59.805Z,2.06
2023-11-19T20:16:03.679Z,2.09
2023-11-19T20:21:10.905Z,2.19
2023-11-19T20:26:19.240Z,2.25
2023-11-19T20:31:22.338Z,2.25
2023-11-19T20:36:25.473Z,2.26
2023-11-19T20:41:29.808Z,2.27
2023-11-19T20:46:32.809Z,2.21
2023-11-19T20:51:40.615Z,2.22
2023-11-19T20:56:44.483Z,2.24
2023-11-19T21:01:47.567Z,2.26
2023-11-19T21:11:57.846Z,2.23
2023-11-19T21:17:01.353Z,2.19
2023-11-19T21:22:05.727Z,2.17
2023-11-19T21:27:09.202Z,2.14
2023-11-19T21:32:12.874Z,2.12
2023-11-19T21:37:16.157Z,2.13
2023-11-19T21:42:22.592Z,2.17
2023-11-19T21:47:25.825Z,2.16
2023-11-19T21:52:29.141Z,2.16
2023-11-19T21:57:32.344Z,2.09
2023-11-19T22:02:35.591Z,2.02
2023-11-19T22:07:39.145Z,2.08
2023-11-19T22:12:42.374Z,2.17
2023-11-19T22:17:45.537Z,2.23
2023-11-19T22:22:48.987Z,2.23
2023-11-19T22:27:52.943Z,2.20
2023-11-19T22:32:56.275Z,2.17
2023-11-19T22:37:59.282Z,2.14
2023-11-19T22:43:02.457Z,2.16
2023-11-19T22:48:05.740Z,2.22
2023-11-19T22:53:08.813Z,2.31
2023-11-19T22:58:12.363Z,2.33
2023-11-19T23:03:15.868Z,2.29
2023-11-19T23:08:19.038Z,2.28
2023-11-19T23:13:22.143Z,2.28
2023-11-19T23:18:26.743Z,2.29
2023-11-19T23:23:29.757Z,2.28
2023-11-19T23:28:32.719Z,2.37
2023-11-19T23:33:35.789Z,2.48
2023-11-19T23:38:38.820Z,2.56
2023-11-19T23:43:41.821Z,2.59
2023-11-19T23:53:51.143Z,2.54
2023-11-19T23:58:55.127Z,2.55
